createdAt,value
2018-04-07T00:06:54.000Z,1006.46
2018-04-07T00:16:54.000Z,1006.379
2018-04-07T00:36:54.000Z,1006.171
2018-04-07T00:46:54.000Z,1006.198
2018-04-07T00:56:54.000Z,1006.347
2018-04-07T01:06:55.000Z,1006.5
2018-04-07T01:16:55.000Z,1006.431
2018-04-07T01:26:55.000Z,1006.423
2018-04-07T01:36:55.000Z,1006.291
2018-04-07T01:46:55.000Z,1006.227
2018-04-07T01:56:55.000Z,1006.154
2018-04-07T02:06:55.000Z,1006.114
2018-04-07T02:16:55.000Z,1006.115
2018-04-07T02:26:55.000Z,1006.011
2018-04-07T02:36:55.000Z,1005.859
2018-04-07T02:46:55.000Z,1005.892
2018-04-07T02:56:55.000Z,1005.803
2018-04-07T03:06:55.000Z,1005.751
2018-04-07T03:16:55.000Z,1005.691
2018-04-07T03:26:55.000Z,1005.425
2018-04-07T03:36:55.000Z,1005.524
2018-04-07T03:46:55.000Z,1005.504
2018-04-07T03:56:55.000Z,1005.398
2018-04-07T04:06:55.000Z,1005.398
2018-04-07T04:16:55.000Z,1005.471
2018-04-07T04:26:55.000Z,1005.429
2018-04-07T04:36:55.000Z,1005.338
2018-04-07T04:46:55.000Z,1005.32
2018-04-07T04:56:55.000Z,1005.242
2018-04-07T05:06:55.000Z,1005.091
2018-04-07T05:16:55.000Z,1005.067
2018-04-07T05:26:55.000Z,1005.05
2018-04-07T05:36:55.000Z,1005.033
2018-04-07T05:46:55.000Z,1004.991
2018-04-07T05:56:55.000Z,1004.998
2018-04-07T06:06:55.000Z,1004.989
2018-04-07T06:16:55.000Z,1004.969
2018-04-07T06:26:55.000Z,1004.998
2018-04-07T06:36:55.000Z,1004.999
2018-04-07T06:46:55.000Z,1004.941
2018-04-07T06:56:55.000Z,1004.901
2018-04-07T07:06:55.000Z,1004.821
2018-04-07T07:16:55.000Z,1004.903
2018-04-07T07:26:55.000Z,1004.876
2018-04-07T07:36:55.000Z,1004.86
2018-04-07T07:46:55.000Z,1004.784
2018-04-07T07:56:55.000Z,1004.746
2018-04-07T08:06:55.000Z,1004.815
2018-04-07T08:16:55.000Z,1004.792
2018-04-07T08:26:55.000Z,1004.704
2018-04-07T08:36:55.000Z,1004.764
2018-04-07T08:46:55.000Z,1004.738
2018-04-07T08:56:55.000Z,1004.609
2018-04-07T09:06:55.000Z,1004.608
2018-04-07T09:16:55.000Z,1004.674
2018-04-07T09:26:55.000Z,1004.594
2018-04-07T09:36:56.000Z,1004.516
2018-04-07T09:46:56.000Z,1004.394
2018-04-07T09:56:56.000Z,1004.357
2018-04-07T10:06:56.000Z,1004.245
2018-04-07T10:16:56.000Z,1004.288
2018-04-07T10:26:56.000Z,1004.243
2018-04-07T10:36:56.000Z,1004.079
2018-04-07T10:46:56.000Z,1003.992
2018-04-07T10:56:56.000Z,1003.785
2018-04-07T11:06:56.000Z,1003.74
2018-04-07T11:16:56.000Z,1003.716
2018-04-07T11:26:56.000Z,1003.638
2018-04-07T11:36:56.000Z,1003.618
2018-04-07T11:46:56.000Z,1003.498
2018-04-07T11:56:56.000Z,1003.424
2018-04-07T12:06:56.000Z,1003.372
2018-04-07T12:16:59.000Z,1003.311
2018-04-07T12:26:56.000Z,1003.202
2018-04-07T12:36:56.000Z,1003.086
2018-04-07T12:46:56.000Z,1002.878
2018-04-07T12:56:56.000Z,1002.814
2018-04-07T13:06:56.000Z,1002.675
2018-04-07T13:16:56.000Z,1002.506
2018-04-07T13:26:56.000Z,1002.42
2018-04-07T13:36:56.000Z,1002.22
2018-04-07T13:46:56.000Z,1002.107
2018-04-07T13:56:56.000Z,1001.963
2018-04-07T14:06:56.000Z,1001.832
2018-04-07T14:16:56.000Z,1001.72
2018-04-07T14:26:56.000Z,1001.519
2018-04-07T14:36:56.000Z,1001.427
2018-04-07T14:46:56.000Z,1001.265
2018-04-07T14:56:56.000Z,1001.209
2018-04-07T15:06:56.000Z,1001.199
2018-04-07T15:26:56.000Z,1001.163
2018-04-07T15:36:56.000Z,1001.18
2018-04-07T15:46:56.000Z,1001.241
2018-04-07T15:56:56.000Z,1001.245
2018-04-07T16:06:56.000Z,1001.103
2018-04-07T16:16:56.000Z,1001.109
2018-04-07T16:26:57.000Z,1001.139
2018-04-07T16:36:56.000Z,1001.081
2018-04-07T16:46:56.000Z,1001.1
2018-04-07T16:56:56.000Z,1001.026
2018-04-07T17:06:56.000Z,1001.114
2018-04-07T17:16:57.000Z,1001.196
2018-04-07T17:26:56.000Z,1001.201
2018-04-07T17:36:57.000Z,1001.144
2018-04-07T17:46:57.000Z,1001.13
2018-04-07T17:56:57.000Z,1001.156
2018-04-07T18:06:57.000Z,1001.155
2018-04-07T18:16:57.000Z,1001.189
2018-04-07T18:26:57.000Z,1001.318
2018-04-07T18:36:57.000Z,1001.457
2018-04-07T18:46:57.000Z,1001.515
2018-04-07T18:56:57.000Z,1001.542
2018-04-07T19:06:57.000Z,1001.715
2018-04-07T19:16:57.000Z,1001.792
2018-04-07T19:26:58.000Z,1001.914
2018-04-07T19:36:57.000Z,1001.96
2018-04-07T19:46:57.000Z,1002.011
2018-04-07T19:56:57.000Z,1002.118
2018-04-07T20:06:57.000Z,1002.177
2018-04-07T20:16:57.000Z,1002.109
2018-04-07T20:26:57.000Z,1002.071
2018-04-07T20:36:57.000Z,1002.116
2018-04-07T20:46:57.000Z,1002.118
2018-04-07T20:56:57.000Z,1002.116
2018-04-07T21:06:58.000Z,1002.124
2018-04-07T21:16:57.000Z,1002.106
2018-04-07T21:26:57.000Z,1002.088
2018-04-07T21:36:57.000Z,1002.014
2018-04-07T21:46:57.000Z,1001.974
2018-04-07T21:56:57.000Z,1001.929
2018-04-07T22:06:57.000Z,1001.945
2018-04-07T22:16:57.000Z,1001.932
2018-04-07T22:26:57.000Z,1001.858
2018-04-07T22:36:57.000Z,1001.784
2018-04-07T22:46:57.000Z,1001.691
2018-04-07T22:56:57.000Z,1001.683
2018-04-07T23:06:57.000Z,1001.714
2018-04-07T23:16:57.000Z,1001.736
2018-04-07T23:26:57.000Z,1001.73
2018-04-07T23:36:57.000Z,1001.722
2018-04-07T23:46:57.000Z,1001.673
2018-04-07T23:56:57.000Z,1001.668
